createdAt,value
2018-05-06T00:01:22.424Z,11.60
2018-05-06T00:03:48.825Z,11.80
2018-05-06T00:06:15.990Z,11.60
2018-05-06T00:08:42.392Z,11.60
2018-05-06T00:11:08.789Z,11.60
2018-05-06T00:13:35.183Z,11.60
2018-05-06T00:16:01.606Z,11.50
2018-05-06T00:18:28.768Z,11.40
2018-05-06T00:20:55.155Z,11.30
2018-05-06T00:23:21.569Z,11.20
2018-05-06T00:25:47.972Z,11.20
2018-05-06T00:28:14.379Z,11.20
2018-05-06T00:30:41.543Z,11.10
2018-05-06T00:33:08.004Z,11.00
2018-05-06T00:35:34.395Z,11.00
2018-05-06T00:38:01.528Z,10.90
2018-05-06T00:40:27.923Z,10.80
2018-05-06T00:42:54.363Z,10.80
2018-05-06T00:45:20.755Z,10.90
2018-05-06T00:47:47.154Z,10.90
2018-05-06T00:50:13.551Z,10.80
2018-05-06T00:52:39.933Z,10.80
2018-05-06T00:55:07.072Z,10.70
2018-05-06T00:57:33.526Z,10.70
2018-05-06T00:59:59.926Z,10.50
2018-05-06T01:02:26.322Z,10.50
2018-05-06T01:04:52.721Z,10.40
2018-05-06T01:07:19.879Z,10.10
2018-05-06T01:09:47.018Z,10.00
2018-05-06T01:12:14.169Z,9.90
2018-05-06T01:14:41.309Z,9.90
2018-05-06T01:17:08.456Z,10.00
2018-05-06T01:19:35.641Z,10.00
2018-05-06T01:22:02.037Z,10.00
2018-05-06T01:24:29.171Z,9.80
2018-05-06T01:26:55.552Z,9.80
2018-05-06T01:29:21.982Z,9.90
2018-05-06T01:31:48.418Z,9.80
2018-05-06T01:34:14.819Z,9.70
2018-05-06T01:36:41.953Z,9.80
2018-05-06T01:39:09.813Z,9.80
2018-05-06T01:41:36.204Z,9.80
2018-05-06T01:44:02.743Z,9.80
2018-05-06T01:46:29.166Z,9.70
2018-05-06T01:48:55.579Z,9.60
2018-05-06T01:51:22.759Z,9.40
2018-05-06T01:53:49.152Z,9.30
2018-05-06T01:56:15.583Z,9.20
2018-05-06T01:58:42.711Z,9.00
2018-05-06T02:01:09.141Z,8.90
2018-05-06T02:03:35.588Z,8.90
2018-05-06T02:06:02.763Z,9.00
2018-05-06T02:08:29.904Z,9.00
2018-05-06T02:10:57.043Z,9.00
2018-05-06T02:13:23.437Z,9.00
2018-05-06T02:15:49.857Z,9.00
2018-05-06T02:18:17.025Z,9.00
2018-05-06T02:20:43.435Z,9.00
2018-05-06T02:23:09.826Z,9.00
2018-05-06T02:25:37.104Z,8.90
2018-05-06T02:28:03.531Z,8.90
2018-05-06T02:30:30.680Z,8.80
2018-05-06T02:32:57.826Z,8.60
2018-05-06T02:35:24.963Z,8.50
2018-05-06T02:37:52.119Z,8.40
2018-05-06T02:40:18.551Z,8.40
2018-05-06T02:42:45.683Z,8.50
2018-05-06T02:45:12.126Z,8.40
2018-05-06T02:47:39.278Z,8.60
2018-05-06T02:50:05.699Z,8.50
2018-05-06T02:52:33.566Z,8.50
2018-05-06T02:55:00.695Z,8.40
2018-05-06T02:57:27.137Z,8.40
2018-05-06T02:59:53.551Z,8.40
2018-05-06T03:02:19.957Z,8.30
2018-05-06T03:04:46.406Z,8.30
2018-05-06T03:07:12.906Z,8.40
2018-05-06T03:09:40.103Z,8.50
2018-05-06T03:12:06.504Z,8.50
2018-05-06T03:14:32.892Z,8.40
2018-05-06T03:16:59.284Z,8.30
2018-05-06T03:19:25.674Z,8.20
2018-05-06T03:21:52.814Z,8.10
2018-05-06T03:24:19.949Z,8.10
2018-05-06T03:26:46.340Z,8.10
2018-05-06T03:29:12.824Z,8.10
2018-05-06T03:31:40.707Z,8.00
2018-05-06T03:34:07.849Z,8.00
2018-05-06T03:36:34.224Z,8.00
2018-05-06T03:39:00.668Z,7.90
2018-05-06T03:41:27.078Z,8.00
2018-05-06T03:43:53.516Z,8.00
2018-05-06T03:46:19.916Z,8.10
2018-05-06T03:48:47.064Z,7.80
2018-05-06T03:51:14.380Z,7.90
2018-05-06T03:53:40.783Z,7.80
2018-05-06T04:09:37.994Z,7.70
2018-05-06T04:12:05.226Z,7.60
2018-05-06T04:14:31.726Z,7.60
2018-05-06T04:16:58.139Z,7.60
2018-05-06T04:19:24.540Z,7.70
2018-05-06T04:21:51.676Z,7.70
2018-05-06T04:24:18.083Z,7.70
2018-05-06T04:26:44.494Z,7.60
2018-05-06T04:29:10.896Z,7.70
2018-05-06T04:31:38.048Z,7.70
2018-05-06T04:34:05.198Z,7.70
2018-05-06T04:36:32.341Z,7.70
2018-05-06T04:38:59.470Z,7.80
2018-05-06T04:54:31.755Z,8.30
2018-05-06T04:56:58.191Z,8.30
2018-05-06T04:59:25.311Z,8.60
2018-05-06T05:01:51.803Z,8.60
2018-05-06T05:04:18.215Z,8.60
2018-05-06T05:06:44.590Z,8.70
2018-05-06T05:09:10.986Z,9.00
2018-05-06T05:11:37.379Z,9.10
2018-05-06T05:14:03.774Z,9.10
2018-05-06T05:16:30.227Z,9.20
2018-05-06T05:18:57.412Z,9.60
2018-05-06T05:21:24.559Z,10.00
2018-05-06T05:23:51.484Z,9.90
2018-05-06T05:26:17.900Z,10.20
2018-05-06T05:28:44.311Z,10.30
2018-05-06T05:31:10.704Z,10.40
2018-05-06T05:33:37.838Z,11.50
2018-05-06T05:36:04.235Z,11.50
2018-05-06T05:38:30.611Z,12.20
2018-05-06T05:40:57.006Z,12.90
2018-05-06T05:43:23.416Z,13.70
2018-05-06T05:45:49.865Z,14.50
2018-05-06T05:48:16.277Z,15.60
2018-05-06T05:50:42.674Z,16.60
2018-05-06T05:53:09.077Z,17.20
2018-05-06T05:55:35.555Z,17.60
2018-05-06T05:58:01.901Z,17.90
2018-05-06T06:00:28.356Z,18.40
2018-05-06T06:02:54.741Z,18.60
2018-05-06T06:05:21.135Z,19.00
2018-05-06T06:07:47.594Z,18.90
2018-05-06T06:10:14.032Z,18.60
2018-05-06T06:12:41.203Z,18.80
2018-05-06T06:15:08.439Z,18.70
2018-05-06T06:17:35.571Z,18.70
2018-05-06T06:20:01.999Z,18.70
2018-05-06T06:22:28.394Z,18.90
2018-05-06T06:24:54.784Z,18.90
2018-05-06T06:27:21.919Z,18.90
2018-05-06T06:29:49.792Z,18.70
2018-05-06T06:32:16.214Z,18.70
2018-05-06T06:34:44.108Z,18.70
2018-05-06T06:37:12.085Z,18.50
2018-05-06T06:39:39.265Z,18.30
2018-05-06T06:42:05.671Z,18.30
2018-05-06T06:44:32.816Z,17.70
2018-05-06T06:46:59.237Z,17.60
2018-05-06T06:49:26.460Z,17.50
2018-05-06T06:51:52.904Z,17.50
2018-05-06T06:54:19.314Z,17.30
2018-05-06T06:56:45.789Z,17.40
2018-05-06T06:59:12.923Z,17.70
2018-05-06T07:01:39.341Z,17.70
2018-05-06T07:04:05.740Z,17.80
2018-05-06T07:06:32.134Z,17.70
2018-05-06T07:08:58.518Z,17.90
2018-05-06T07:11:24.955Z,18.00
2018-05-06T07:13:51.363Z,18.00
2018-05-06T07:16:17.771Z,18.10
2018-05-06T07:18:45.066Z,18.30
2018-05-06T07:21:11.498Z,18.30
2018-05-06T07:23:37.867Z,18.50
2018-05-06T07:26:04.340Z,18.70
2018-05-06T07:28:30.764Z,18.70
2018-05-06T07:30:57.194Z,18.60
2018-05-06T07:33:24.322Z,18.90
2018-05-06T07:35:50.735Z,18.90
2018-05-06T07:38:17.133Z,19.30
2018-05-06T07:40:43.523Z,19.20
2018-05-06T07:43:09.924Z,19.40
2018-05-06T07:45:36.336Z,19.50
2018-05-06T07:48:02.735Z,19.50
2018-05-06T07:50:29.854Z,19.50
2018-05-06T07:52:56.251Z,19.50
2018-05-06T07:55:22.706Z,19.40
2018-05-06T07:57:49.096Z,19.30
2018-05-06T08:00:16.244Z,18.90
2018-05-06T08:02:42.645Z,18.90
2018-05-06T08:05:09.063Z,19.20
2018-05-06T08:07:36.255Z,19.00
2018-05-06T08:10:03.432Z,19.00
2018-05-06T08:12:29.819Z,18.90
2018-05-06T08:14:56.207Z,18.80
2018-05-06T08:17:22.586Z,18.70
2018-05-06T08:19:49.752Z,19.20
2018-05-06T08:22:16.184Z,19.20
2018-05-06T08:24:43.447Z,19.70
2018-05-06T08:27:09.834Z,19.70
2018-05-06T08:29:36.230Z,19.70
2018-05-06T08:32:02.712Z,19.70
2018-05-06T08:34:29.871Z,19.20
2018-05-06T08:36:56.248Z,19.20
2018-05-06T08:39:22.655Z,19.20
2018-05-06T08:41:49.788Z,19.10
2018-05-06T08:44:16.187Z,19.10
2018-05-06T08:46:42.592Z,19.00
2018-05-06T08:49:08.995Z,18.90
2018-05-06T08:51:36.163Z,19.10
2018-05-06T08:54:02.572Z,19.10
2018-05-06T08:56:29.706Z,19.40
2018-05-06T08:58:57.591Z,19.60
2018-05-06T09:01:24.735Z,19.90
2018-05-06T09:03:51.154Z,19.90
2018-05-06T09:06:17.567Z,20.00
2018-05-06T09:08:43.985Z,19.70
2018-05-06T09:11:10.394Z,19.60
2018-05-06T09:13:37.493Z,19.50
2018-05-06T09:16:03.908Z,19.50
2018-05-06T09:18:30.329Z,19.50
2018-05-06T09:20:56.706Z,19.60
2018-05-06T09:23:23.096Z,19.70
2018-05-06T09:25:49.496Z,19.60
2018-05-06T09:28:15.910Z,19.50
2018-05-06T09:30:43.077Z,19.40
2018-05-06T09:33:10.277Z,19.50
2018-05-06T09:35:36.675Z,19.40
2018-05-06T09:38:03.077Z,19.70
2018-05-06T09:40:29.473Z,19.80
2018-05-06T09:42:55.927Z,19.70
2018-05-06T09:45:22.327Z,20.00
2018-05-06T09:47:48.739Z,20.30
2018-05-06T09:50:15.863Z,20.50
2018-05-06T09:52:42.995Z,20.50
2018-05-06T09:55:09.382Z,20.50
2018-05-06T09:57:35.770Z,20.40
2018-05-06T10:00:02.173Z,20.40
2018-05-06T10:02:28.559Z,20.50
2018-05-06T10:04:55.698Z,20.50
2018-05-06T10:07:22.839Z,20.80
2018-05-06T10:09:49.969Z,20.90
2018-05-06T10:12:16.454Z,20.90
2018-05-06T10:14:42.859Z,21.00
2018-05-06T10:17:09.982Z,20.80
2018-05-06T10:19:36.386Z,20.70
2018-05-06T10:22:02.794Z,20.70
2018-05-06T10:24:29.951Z,20.80
2018-05-06T10:26:56.376Z,20.80
2018-05-06T10:29:23.520Z,20.70
2018-05-06T10:31:50.647Z,20.70
2018-05-06T10:34:17.822Z,21.10
2018-05-06T10:36:44.385Z,21.00
2018-05-06T10:39:10.783Z,21.10
2018-05-06T10:41:37.922Z,21.30
2018-05-06T10:44:05.205Z,21.20
2018-05-06T10:46:31.605Z,21.20
2018-05-06T10:48:58.069Z,21.40
2018-05-06T10:51:24.429Z,21.50
2018-05-06T10:53:50.844Z,21.70
2018-05-06T10:56:17.969Z,21.90
2018-05-06T10:58:45.105Z,21.80
2018-05-06T11:01:12.244Z,21.90
2018-05-06T11:03:38.652Z,21.90
2018-05-06T11:06:05.034Z,22.20
2018-05-06T11:08:32.209Z,22.30
2018-05-06T11:10:58.584Z,22.30
2018-05-06T11:13:24.984Z,22.60
2018-05-06T11:15:51.369Z,22.50
2018-05-06T11:18:17.857Z,22.60
2018-05-06T11:20:44.193Z,22.50
2018-05-06T11:23:10.598Z,22.60
2018-05-06T11:25:36.994Z,22.40
2018-05-06T11:28:04.933Z,22.40
2018-05-06T11:30:32.152Z,22.40
2018-05-06T11:32:58.526Z,22.30
2018-05-06T11:35:24.930Z,22.50
2018-05-06T11:37:51.350Z,22.30
2018-05-06T11:40:17.785Z,22.30
2018-05-06T11:42:44.184Z,22.50
2018-05-06T11:45:10.632Z,22.50
2018-05-06T11:47:37.048Z,22.20
2018-05-06T11:50:04.177Z,22.30
2018-05-06T11:52:30.574Z,22.20
2018-05-06T11:54:56.964Z,22.00
2018-05-06T11:57:24.089Z,22.60
2018-05-06T11:59:50.508Z,22.60
2018-05-06T12:02:16.917Z,22.60
2018-05-06T12:04:43.321Z,22.70
2018-05-06T12:07:10.460Z,22.60
2018-05-06T12:09:36.850Z,22.60
2018-05-06T12:12:03.255Z,22.60
2018-05-06T12:14:29.635Z,22.70
2018-05-06T12:16:56.025Z,22.80
2018-05-06T12:19:22.415Z,22.90
2018-05-06T12:21:48.806Z,23.00
2018-05-06T12:24:15.193Z,23.00
2018-05-06T12:26:41.581Z,23.10
2018-05-06T12:29:07.998Z,23.10
2018-05-06T12:31:34.388Z,23.00
2018-05-06T12:34:01.526Z,23.10
2018-05-06T12:36:27.939Z,23.10
2018-05-06T12:38:54.336Z,23.00
2018-05-06T12:41:20.775Z,23.20
2018-05-06T12:43:47.167Z,23.50
2018-05-06T12:46:13.568Z,23.60
2018-05-06T12:48:39.963Z,23.60
2018-05-06T12:51:06.379Z,23.40
2018-05-06T12:53:32.766Z,23.50
2018-05-06T12:55:59.144Z,23.40
2018-05-06T12:58:26.268Z,23.40
2018-05-06T13:00:53.387Z,23.20
2018-05-06T13:03:19.778Z,23.20
2018-05-06T13:05:46.252Z,23.10
2018-05-06T13:08:12.636Z,23.10
2018-05-06T13:10:39.776Z,23.00
2018-05-06T13:13:06.155Z,23.00
2018-05-06T13:15:32.551Z,23.00
2018-05-06T13:17:59.668Z,23.10
2018-05-06T13:20:26.076Z,23.10
2018-05-06T13:22:52.485Z,23.20
2018-05-06T13:25:18.894Z,23.30
2018-05-06T13:27:46.078Z,23.50
2018-05-06T13:30:12.473Z,23.50
2018-05-06T13:32:39.661Z,23.80
2018-05-06T13:35:06.094Z,23.80
2018-05-06T13:37:32.480Z,24.00
2018-05-06T13:39:58.874Z,24.00
2018-05-06T13:42:25.272Z,23.90
2018-05-06T13:44:52.435Z,23.70
2018-05-06T13:47:18.849Z,23.70
2018-05-06T13:49:46.066Z,23.50
2018-05-06T13:52:12.421Z,23.50
2018-05-06T13:54:39.575Z,23.90
2018-05-06T13:57:06.755Z,23.80
2018-05-06T13:59:33.150Z,23.80
2018-05-06T14:02:00.270Z,24.00
2018-05-06T14:04:26.673Z,24.00
2018-05-06T14:06:53.139Z,24.10
2018-05-06T14:09:19.532Z,24.10
2018-05-06T14:11:45.921Z,24.00
2018-05-06T14:14:13.802Z,23.80
2018-05-06T14:16:41.676Z,23.90
2018-05-06T14:19:08.803Z,23.90
2018-05-06T14:21:36.703Z,24.10
2018-05-06T14:24:03.098Z,24.00
2018-05-06T14:26:29.501Z,23.90
2018-05-06T14:28:55.898Z,23.90
2018-05-06T14:31:23.021Z,23.90
2018-05-06T14:33:50.939Z,23.80
2018-05-06T14:36:17.345Z,23.80
2018-05-06T14:38:44.478Z,23.90
2018-05-06T14:41:11.616Z,23.60
2018-05-06T14:43:38.010Z,23.60
2018-05-06T14:46:04.471Z,23.50
2018-05-06T14:48:30.979Z,23.70
2018-05-06T14:50:57.305Z,23.80
2018-05-06T14:53:23.695Z,23.80
2018-05-06T14:55:50.182Z,24.00
2018-05-06T14:58:17.327Z,24.20
2018-05-06T15:00:43.718Z,24.20
2018-05-06T15:03:10.861Z,23.80
2018-05-06T15:05:38.742Z,23.50
2018-05-06T15:08:05.888Z,23.50
2018-05-06T15:10:33.979Z,23.70
2018-05-06T15:13:00.348Z,23.60
2018-05-06T15:15:26.763Z,23.50
2018-05-06T15:17:53.149Z,23.50
2018-05-06T15:20:21.020Z,23.30
2018-05-06T15:22:48.151Z,23.50
2018-05-06T15:25:14.617Z,23.50
2018-05-06T15:27:40.971Z,23.60
2018-05-06T15:30:07.411Z,23.40
2018-05-06T15:32:33.807Z,23.20
2018-05-06T15:35:00.970Z,23.10
2018-05-06T15:37:27.354Z,23.10
2018-05-06T15:39:53.779Z,23.00
2018-05-06T15:42:20.174Z,23.10
2018-05-06T15:44:47.315Z,23.10
2018-05-06T15:47:14.434Z,23.20
2018-05-06T15:49:40.866Z,23.20
2018-05-06T15:52:07.311Z,23.10
2018-05-06T15:54:33.724Z,23.30
2018-05-06T15:57:00.131Z,23.20
2018-05-06T15:59:26.560Z,23.00
2018-05-06T16:02:05.186Z,22.90
2018-05-06T16:04:31.600Z,23.00
2018-05-06T16:06:58.000Z,22.70
2018-05-06T16:09:25.137Z,22.50
2018-05-06T16:11:51.755Z,22.50
2018-05-06T16:14:18.182Z,22.70
2018-05-06T16:16:44.569Z,22.90
2018-05-06T16:19:11.749Z,22.40
2018-05-06T16:21:38.136Z,22.40
2018-05-06T16:24:06.015Z,22.80
2018-05-06T16:26:33.229Z,22.90
2018-05-06T16:29:00.302Z,22.80
2018-05-06T16:31:27.445Z,22.80
2018-05-06T16:33:55.324Z,22.70
2018-05-06T16:36:21.722Z,22.70
2018-05-06T16:38:48.120Z,22.90
2018-05-06T16:41:14.514Z,22.90
2018-05-06T16:43:42.418Z,22.40
2018-05-06T16:46:08.802Z,22.40
2018-05-06T16:48:35.240Z,22.20
2018-05-06T16:51:01.636Z,22.30
2018-05-06T16:53:28.052Z,22.40
2018-05-06T16:55:54.441Z,22.40
2018-05-06T16:58:20.855Z,22.50
2018-05-06T17:00:47.297Z,22.30
2018-05-06T17:03:13.690Z,22.40
2018-05-06T17:05:40.767Z,22.40
2018-05-06T17:08:07.214Z,22.20
2018-05-06T17:10:33.618Z,22.20
2018-05-06T17:13:00.028Z,22.20
2018-05-06T17:15:26.419Z,22.10
2018-05-06T17:17:52.921Z,22.00
2018-05-06T17:20:19.361Z,21.90
2018-05-06T17:22:45.912Z,21.90
2018-05-06T17:25:12.314Z,21.70
2018-05-06T17:27:39.749Z,21.70
2018-05-06T17:30:06.733Z,21.70
2018-05-06T17:32:33.140Z,21.80
2018-05-06T17:34:59.541Z,21.70
2018-05-06T17:37:26.735Z,21.70
2018-05-06T17:39:53.141Z,21.60
2018-05-06T17:42:19.576Z,21.60
2018-05-06T17:44:46.022Z,21.50
2018-05-06T17:47:12.444Z,21.30
2018-05-06T17:49:38.892Z,21.30
2018-05-06T17:52:05.274Z,21.20
2018-05-06T17:54:33.173Z,21.00
2018-05-06T17:57:00.316Z,20.90
2018-05-06T17:59:27.445Z,20.80
2018-05-06T18:01:53.861Z,20.70
2018-05-06T18:04:20.283Z,20.70
2018-05-06T18:06:46.772Z,20.70
2018-05-06T18:09:14.149Z,20.50
2018-05-06T18:11:40.558Z,20.40
2018-05-06T18:14:07.708Z,20.20
2018-05-06T18:16:34.842Z,20.10
2018-05-06T18:19:02.025Z,20.10
2018-05-06T18:21:28.436Z,19.90
2018-05-06T18:23:55.572Z,19.50
2018-05-06T18:26:22.042Z,19.50
2018-05-06T18:28:48.445Z,19.40
2018-05-06T18:31:15.570Z,18.90
2018-05-06T18:33:41.967Z,18.90
2018-05-06T18:36:08.385Z,18.70
2018-05-06T18:38:34.794Z,18.60
2018-05-06T18:41:01.917Z,18.40
2018-05-06T18:43:28.333Z,18.30
2018-05-06T18:45:54.743Z,18.30
2018-05-06T18:48:21.157Z,18.10
2018-05-06T18:50:47.594Z,17.90
2018-05-06T18:53:14.759Z,17.70
2018-05-06T18:55:41.158Z,17.60
2018-05-06T18:58:07.582Z,17.60
2018-05-06T19:00:34.855Z,17.60
2018-05-06T19:03:01.995Z,17.50
2018-05-06T19:05:29.448Z,17.40
2018-05-06T19:07:56.648Z,17.20
2018-05-06T19:10:23.082Z,17.20
2018-05-06T19:12:49.473Z,17.10
2018-05-06T19:15:16.607Z,16.90
2018-05-06T19:17:42.983Z,16.80
2018-05-06T19:20:09.360Z,16.80
2018-05-06T19:22:35.775Z,16.70
2018-05-06T19:25:02.236Z,16.70
2018-05-06T19:27:29.396Z,16.60
2018-05-06T19:29:55.805Z,16.70
2018-05-06T19:32:22.247Z,16.60
2018-05-06T19:34:49.312Z,16.70
2018-05-06T19:37:16.459Z,16.60
2018-05-06T19:39:42.880Z,16.60
2018-05-06T19:42:09.296Z,16.50
2018-05-06T19:44:35.701Z,16.50
2018-05-06T19:47:02.098Z,16.40
2018-05-06T19:49:29.248Z,16.10
2018-05-06T19:51:55.642Z,16.10
2018-05-06T19:54:22.034Z,16.00
2018-05-06T19:56:48.461Z,16.00
2018-05-06T19:59:15.596Z,16.10
2018-05-06T20:01:42.741Z,16.10
2018-05-06T20:04:09.886Z,16.00
2018-05-06T20:06:36.283Z,16.00
2018-05-06T20:09:02.721Z,15.80
2018-05-06T20:11:29.119Z,15.80
2018-05-06T20:13:55.631Z,15.70
2018-05-06T20:16:22.801Z,15.50
2018-05-06T20:18:49.202Z,15.40
2018-05-06T20:21:15.603Z,15.40
2018-05-06T20:23:41.997Z,15.30
2018-05-06T20:26:08.396Z,15.30
2018-05-06T20:28:36.295Z,15.20
2018-05-06T20:31:03.488Z,15.20
2018-05-06T20:33:30.091Z,15.10
2018-05-06T20:35:56.491Z,15.00
2018-05-06T20:38:22.981Z,14.80
2018-05-06T20:40:49.453Z,14.70
2018-05-06T20:43:16.608Z,14.80
2018-05-06T20:45:43.010Z,14.70
2018-05-06T20:48:09.408Z,14.70
2018-05-06T20:50:35.792Z,14.60
2018-05-06T20:53:02.188Z,14.50
2018-05-06T20:55:28.591Z,14.40
2018-05-06T20:57:55.004Z,14.30
2018-05-06T21:00:22.152Z,14.30
2018-05-06T21:02:49.397Z,14.30
2018-05-06T21:05:17.314Z,14.30
2018-05-06T21:07:44.399Z,14.30
2018-05-06T21:10:10.784Z,14.30
2018-05-06T21:12:37.162Z,14.20
2018-05-06T21:15:03.574Z,14.20
2018-05-06T21:17:30.097Z,14.20
2018-05-06T21:19:56.511Z,14.20
2018-05-06T21:22:23.641Z,14.00
2018-05-06T21:24:50.779Z,14.00
2018-05-06T21:27:17.175Z,14.00
2018-05-06T21:29:43.617Z,14.00
2018-05-06T21:32:09.977Z,14.00
2018-05-06T21:34:36.381Z,13.80
2018-05-06T21:37:02.816Z,13.80
2018-05-06T21:39:29.202Z,13.70
2018-05-06T21:41:56.357Z,13.50
2018-05-06T21:44:22.749Z,13.50
2018-05-06T21:46:49.145Z,13.50
2018-05-06T21:49:15.590Z,13.50
2018-05-06T21:51:41.990Z,13.40
2018-05-06T21:54:08.701Z,13.20
2018-05-06T21:56:35.830Z,13.00
2018-05-06T21:59:02.246Z,13.00
2018-05-06T22:01:28.649Z,13.00
2018-05-06T22:03:55.055Z,13.00
2018-05-06T22:06:22.258Z,12.80
2018-05-06T22:08:48.702Z,12.80
2018-05-06T22:11:15.099Z,12.80
2018-05-06T22:13:41.508Z,12.80
2018-05-06T22:16:08.652Z,12.70
2018-05-06T22:18:35.094Z,12.60
2018-05-06T22:21:02.230Z,12.60
2018-05-06T22:23:28.612Z,12.60
2018-05-06T22:25:55.050Z,12.40
2018-05-06T22:28:21.436Z,12.40
2018-05-06T22:30:48.612Z,12.30
2018-05-06T22:33:15.005Z,12.30
2018-05-06T22:35:41.417Z,12.30
2018-05-06T22:38:07.853Z,12.30
2018-05-06T22:40:34.421Z,12.30
2018-05-06T22:43:01.576Z,12.30
2018-05-06T22:45:28.713Z,12.00
2018-05-06T22:47:55.106Z,12.10
2018-05-06T22:50:21.550Z,12.00
2018-05-06T22:52:47.954Z,11.90
2018-05-06T22:55:14.364Z,11.80
2018-05-06T22:57:40.764Z,11.60
2018-05-06T23:00:07.216Z,11.60
2018-05-06T23:02:34.374Z,11.70
2018-05-06T23:05:01.545Z,11.60
2018-05-06T23:07:27.935Z,11.60
2018-05-06T23:09:54.318Z,11.50
2018-05-06T23:12:20.719Z,11.40
2018-05-06T23:14:47.860Z,11.40
2018-05-06T23:17:15.009Z,11.40
2018-05-06T23:19:42.183Z,11.50
2018-05-06T23:22:08.589Z,11.40
2018-05-06T23:24:35.027Z,11.40
2018-05-06T23:27:02.147Z,11.30
2018-05-06T23:29:28.535Z,11.30
2018-05-06T23:31:54.924Z,11.30
2018-05-06T23:34:22.847Z,11.10
2018-05-06T23:36:49.958Z,11.00
2018-05-06T23:39:17.084Z,11.00
2018-05-06T23:41:43.479Z,10.90
2018-05-06T23:44:09.854Z,11.00
2018-05-06T23:46:37.766Z,11.10
2018-05-06T23:49:04.197Z,11.10
2018-05-06T23:51:30.584Z,11.00
2018-05-06T23:53:56.992Z,11.00
2018-05-06T23:56:23.461Z,10.90
2018-05-06T23:58:50.606Z,10.70
